TimeCDT,TemperatureF,Dew PointF,Humidity,Sea Level PressureIn,VisibilityMPH,Wind Direction,Wind SpeedMPH,Gust SpeedMPH,PrecipitationIn,Events,Conditions,WindDirDegrees,DateUTC
12:11 AM,68.0,55.4,64,30.09,10.0,NNW,3.5,-,N/A,,Clear,330,2013-09-12 05:11:00
12:31 AM,66.2,53.6,64,30.09,10.0,NNW,9.2,-,N/A,,Clear,340,2013-09-12 05:31:00
12:52 AM,66.2,51.8,60,30.09,10.0,NNW,8.1,-,N/A,,Clear,340,2013-09-12 05:52:00
1:11 AM,64.4,51.8,64,30.09,10.0,NNW,8.1,-,N/A,,Clear,340,2013-09-12 06:11:00
1:32 AM,64.4,51.8,64,30.10,10.0,NNW,8.1,-,N/A,,Clear,340,2013-09-12 06:32:00
1:52 AM,64.4,50.0,59,30.11,10.0,NW,4.6,-,N/A,,Clear,320,2013-09-12 06:52:00
2:11 AM,64.4,50.0,59,30.11,10.0,NNW,5.8,-,N/A,,Clear,330,2013-09-12 07:11:00
2:31 AM,64.4,48.2,56,30.11,10.0,NNW,4.6,-,N/A,,Clear,330,2013-09-12 07:31:00
2:52 AM,62.6,48.2,59,30.11,10.0,NW,8.1,-,N/A,,Clear,320,2013-09-12 07:52:00
3:11 AM,62.6,48.2,59,30.11,10.0,NW,5.8,-,N/A,,Clear,320,2013-09-12 08:11:00
3:32 AM,62.6,50.0,63,30.12,10.0,NNW,4.6,-,N/A,,Clear,330,2013-09-12 08:32:00
3:52 AM,62.6,48.2,59,30.13,10.0,NW,8.1,-,N/A,,Clear,320,2013-09-12 08:52:00
4:11 AM,60.8,48.2,63,30.13,10.0,NNW,5.8,-,N/A,,Clear,330,2013-09-12 09:11:00
4:31 AM,59.0,50.0,72,30.13,10.0,NNW,5.8,-,N/A,,Clear,330,2013-09-12 09:31:00
4:52 AM,57.2,48.2,72,30.14,10.0,NNW,5.8,-,N/A,,Clear,330,2013-09-12 09:52:00
5:11 AM,57.2,48.2,72,30.14,10.0,NNW,5.8,-,N/A,,Clear,330,2013-09-12 10:11:00
5:31 AM,57.2,48.2,72,30.14,10.0,NNW,5.8,-,N/A,,Clear,330,2013-09-12 10:31:00
5:52 AM,55.4,48.2,77,30.14,10.0,NNW,5.8,-,N/A,,Clear,330,2013-09-12 10:52:00
6:11 AM,55.4,48.2,77,30.15,10.0,NNW,4.6,-,N/A,,Clear,340,2013-09-12 11:11:00
6:31 AM,55.4,48.2,77,30.15,10.0,NNW,3.5,-,N/A,,Clear,330,2013-09-12 11:31:00
6:52 AM,55.4,48.2,77,30.16,10.0,NNW,4.6,-,N/A,,Clear,330,2013-09-12 11:52:00
7:11 AM,55.4,48.2,77,30.17,10.0,NNW,4.6,-,N/A,,Clear,340,2013-09-12 12:11:00
7:31 AM,55.4,50.0,82,30.17,10.0,NNW,4.6,-,N/A,,Clear,330,2013-09-12 12:31:00
7:52 AM,57.2,50.0,77,30.17,10.0,NNW,6.9,-,N/A,,Clear,330,2013-09-12 12:52:00
8:11 AM,57.2,51.8,82,30.18,10.0,NNW,8.1,-,N/A,,Clear,330,2013-09-12 13:11:00
8:31 AM,59.0,51.8,77,30.19,10.0,NNW,6.9,-,N/A,,Clear,340,2013-09-12 13:31:00
8:52 AM,60.8,51.8,72,30.19,10.0,NNW,8.1,-,N/A,,Clear,340,2013-09-12 13:52:00
9:11 AM,62.6,51.8,68,30.20,10.0,NNW,9.2,17.3,N/A,,Clear,340,2013-09-12 14:11:00
9:31 AM,62.6,51.8,68,30.20,10.0,North,11.5,-,N/A,,Clear,350,2013-09-12 14:31:00
9:52 AM,64.4,51.8,64,30.20,10.0,North,13.8,-,N/A,,Clear,350,2013-09-12 14:52:00
10:11 AM,64.4,51.8,64,30.21,10.0,NNW,9.2,-,N/A,,Clear,340,2013-09-12 15:11:00
10:31 AM,66.2,50.0,56,30.22,10.0,North,10.4,-,N/A,,Clear,350,2013-09-12 15:31:00
10:52 AM,68.0,48.2,49,30.21,10.0,NNW,11.5,-,N/A,,Clear,340,2013-09-12 15:52:00
11:11 AM,68.0,48.2,49,30.21,10.0,NNW,8.1,-,N/A,,Clear,330,2013-09-12 16:11:00
11:32 AM,69.8,48.2,46,30.21,10.0,North,11.5,17.3,N/A,,Clear,350,2013-09-12 16:32:00
11:51 AM,69.8,48.2,46,30.21,10.0,NNW,13.8,18.4,N/A,,Clear,340,2013-09-12 16:51:00
12:12 PM,71.6,48.2,43,30.21,10.0,North,10.4,21.9,N/A,,Clear,10,2013-09-12 17:12:00
12:31 PM,69.8,48.2,46,30.21,10.0,NNW,10.4,20.7,N/A,,Scattered Clouds,340,2013-09-12 17:31:00
12:52 PM,71.6,50.0,46,30.21,10.0,North,12.7,19.6,N/A,,Scattered Clouds,360,2013-09-12 17:52:00
1:11 PM,71.6,48.2,43,30.20,10.0,NNW,10.4,21.9,N/A,,Scattered Clouds,330,2013-09-12 18:11:00
1:32 PM,71.6,46.4,41,30.20,10.0,NNW,12.7,21.9,N/A,,Scattered Clouds,340,2013-09-12 18:32:00
1:51 PM,71.6,46.4,41,30.19,10.0,NNW,17.3,25.3,N/A,,Scattered Clouds,340,2013-09-12 18:51:00
2:11 PM,71.6,46.4,41,30.20,10.0,NNW,13.8,19.6,N/A,,Mostly Cloudy,340,2013-09-12 19:11:00
2:32 PM,73.4,44.6,36,30.19,10.0,NNW,15.0,20.7,N/A,,Scattered Clouds,330,2013-09-12 19:32:00
2:51 PM,73.4,44.6,36,30.18,10.0,NNW,13.8,20.7,N/A,,Mostly Cloudy,330,2013-09-12 19:51:00
3:11 PM,73.4,42.8,33,30.18,10.0,NNW,13.8,20.7,N/A,,Scattered Clouds,330,2013-09-12 20:11:00
3:32 PM,73.4,44.6,36,30.17,10.0,North,13.8,19.6,N/A,,Mostly Cloudy,360,2013-09-12 20:32:00
3:51 PM,71.6,46.4,41,30.17,10.0,North,11.5,17.3,N/A,,Mostly Cloudy,360,2013-09-12 20:51:00
4:12 PM,71.6,44.6,38,30.17,10.0,NNW,11.5,20.7,N/A,,Scattered Clouds,330,2013-09-12 21:12:00
4:31 PM,69.8,42.8,38,30.17,10.0,NNW,11.5,23.0,N/A,,Scattered Clouds,340,2013-09-12 21:31:00
4:51 PM,73.4,44.6,36,30.17,10.0,NNW,15.0,18.4,N/A,,Scattered Clouds,340,2013-09-12 21:51:00
5:11 PM,73.4,42.8,33,30.16,10.0,NNW,15.0,19.6,N/A,,Scattered Clouds,340,2013-09-12 22:11:00
5:31 PM,71.6,42.8,35,30.16,10.0,North,11.5,-,N/A,,Scattered Clouds,360,2013-09-12 22:31:00
5:52 PM,71.6,42.8,35,30.17,10.0,North,12.7,17.3,N/A,,Scattered Clouds,360,2013-09-12 22:52:00
6:11 PM,69.8,42.8,38,30.17,10.0,North,10.4,-,N/A,,Clear,350,2013-09-12 23:11:00
6:31 PM,69.8,44.6,40,30.18,10.0,North,8.1,-,N/A,,Clear,350,2013-09-12 23:31:00
6:52 PM,66.2,44.6,46,30.18,10.0,North,9.2,-,N/A,,Clear,350,2013-09-12 23:52:00
7:11 PM,64.4,44.6,49,30.18,10.0,North,5.8,-,N/A,,Clear,350,2013-09-13 00:11:00
7:32 PM,64.4,44.6,49,30.19,10.0,North,5.8,-,N/A,,Clear,350,2013-09-13 00:32:00
7:51 PM,60.8,46.4,59,30.19,10.0,North,4.6,-,N/A,,Clear,350,2013-09-13 00:51:00
8:12 PM,60.8,46.4,59,30.20,10.0,NNW,3.5,-,N/A,,Clear,340,2013-09-13 01:12:00
8:31 PM,60.8,46.4,59,30.20,10.0,NNW,3.5,-,N/A,,Clear,340,2013-09-13 01:31:00
8:51 PM,59.0,46.4,63,30.21,10.0,Calm,Calm,-,N/A,,Clear,0,2013-09-13 01:51:00
9:11 PM,57.2,46.4,67,30.21,10.0,Calm,Calm,-,N/A,,Scattered Clouds,0,2013-09-13 02:11:00
9:32 PM,57.2,46.4,67,30.21,10.0,North,4.6,-,N/A,,Clear,10,2013-09-13 02:32:00
9:51 PM,55.4,46.4,72,30.21,10.0,Calm,Calm,-,N/A,,Clear,0,2013-09-13 02:51:00
10:11 PM,53.6,46.4,77,30.22,10.0,North,3.5,-,N/A,,Clear,350,2013-09-13 03:11:00
10:32 PM,55.4,46.4,72,30.22,10.0,NNW,3.5,-,N/A,,Clear,340,2013-09-13 03:32:00
10:51 PM,53.6,46.4,77,30.22,10.0,North,4.6,-,N/A,,Clear,360,2013-09-13 03:51:00
11:11 PM,53.6,46.4,77,30.22,10.0,NNE,4.6,-,N/A,,Clear,20,2013-09-13 04:11:00
11:32 PM,53.6,46.4,77,30.23,10.0,North,3.5,-,N/A,,Clear,10,2013-09-13 04:32:00
11:51 PM,53.6,46.4,77,30.23,10.0,North,4.6,-,N/A,,Clear,360,2013-09-13 04:51:00